Time;durP1;ratioP1;P1;durP2;ratioP2;P2;SDS_P1;SDS_P2;PMS_P1;PMS_P2;Temp;Humidity;BMP_temperature;BMP_pressure;BME280_temperature;BME280_humidity;BME280_pressure;Samples;Min_cycle;Max_cycle;Signal;HPM_P1;HPM_P2
2023/12/31 00:02:46;;;;;;;16.63;6.53;;;;;;;;;;10312245;23;20023;-91
2023/12/31 00:06:49;;;;;;;23.30;10.05;;;;;;;;;;10339281;23;20016;-91
2023/12/31 00:10:53;;;;;;;20.73;8.18;;;;;;;;;;10339993;23;20044;-91
2023/12/31 00:14:56;;;;;;;14.43;7.10;;;;;;;;;;10311903;23;20046;-91
2023/12/31 00:18:59;;;;;;;13.32;6.88;;;;;;;;;;10338764;23;20020;-91
2023/12/31 00:23:01;;;;;;;18.63;8.50;;;;;;;;;;10339205;23;20376;-91
2023/12/31 00:27:06;;;;;;;16.88;7.43;;;;;;;;;;10339191;23;20334;-91
2023/12/31 00:31:09;;;;;;;16.67;7.57;;;;;;;;;;10338728;23;20018;-92
2023/12/31 00:35:12;;;;;;;19.63;7.22;;;;;;;;;;10338842;23;20023;-91
2023/12/31 00:39:15;;;;;;;14.05;6.47;;;;;;;;;;10338970;23;20340;-91
2023/12/31 00:43:20;;;;;;;16.65;7.32;;;;;;;;;;10338809;23;20016;-91
2023/12/31 00:47:23;;;;;;;13.35;6.22;;;;;;;;;;10311723;23;20016;-91
2023/12/31 00:51:26;;;;;;;23.70;6.72;;;;;;;;;;10338345;23;20444;-91
2023/12/31 00:55:29;;;;;;;12.43;6.15;;;;;;;;;;10338285;23;20023;-91
2023/12/31 00:59:34;;;;;;;11.00;5.45;;;;;;;;;;10339161;23;20047;-91
2023/12/31 01:03:36;;;;;;;18.98;7.05;;;;;;;;;;10338396;23;20039;-92
2023/12/31 01:07:39;;;;;;;19.70;9.55;;;;;;;;;;10338543;23;20016;-91
2023/12/31 01:11:42;;;;;;;22.33;9.75;;;;;;;;;;10338825;23;20020;-92
2023/12/31 01:15:47;;;;;;;17.65;7.63;;;;;;;;;;10338832;23;20016;-92
2023/12/31 01:19:50;;;;;;;12.88;6.63;;;;;;;;;;10338739;23;20020;-92
2023/12/31 01:23:53;;;;;;;16.95;6.28;;;;;;;;;;10338228;23;20502;-92
2023/12/31 01:27:57;;;;;;;24.58;7.22;;;;;;;;;;10338274;23;20016;-91
2023/12/31 01:32:02;;;;;;;21.35;8.90;;;;;;;;;;10338168;23;20066;-91
2023/12/31 01:36:14;;;;;;;18.83;8.20;;;;;;;;;;10338334;23;20119;-92
2023/12/31 01:40:17;;;;;;;26.75;12.15;;;;;;;;;;10338289;23;20024;-91
2023/12/31 01:44:20;;;;;;;15.93;6.95;;;;;;;;;;10338260;23;20016;-92
2023/12/31 01:48:25;;;;;;;139.65;32.08;;;;;;;;;;10338303;23;20462;-91
2023/12/31 01:52:29;;;;;;;357.35;71.72;;;;;;;;;;10338208;23;20115;-92
2023/12/31 01:56:34;;;;;;;137.52;37.58;;;;;;;;;;10338381;23;20020;-92
2023/12/31 02:00:37;;;;;;;52.80;19.05;;;;;;;;;;10337970;23;20016;-91
2023/12/31 02:04:42;;;;;;;58.28;13.65;;;;;;;;;;10338238;23;20028;-91
2023/12/31 02:08:45;;;;;;;25.27;11.55;;;;;;;;;;10337623;23;20051;-92
2023/12/31 02:12:48;;;;;;;45.95;11.70;;;;;;;;;;10337807;23;20436;-91
2023/12/31 02:16:51;;;;;;;28.85;15.35;;;;;;;;;;10337588;23;20073;-92
2023/12/31 02:20:55;;;;;;;48.90;23.80;;;;;;;;;;10337662;23;20047;-92
2023/12/31 02:25:05;;;;;;;20.55;10.07;;;;;;;;;;10337474;23;20095;-91
2023/12/31 02:29:09;;;;;;;22.77;10.35;;;;;;;;;;10354822;23;20016;-92
2023/12/31 02:33:12;;;;;;;21.58;7.47;;;;;;;;;;10337502;23;20028;-92
2023/12/31 02:37:15;;;;;;;24.65;12.40;;;;;;;;;;10337803;23;20047;-91
2023/12/31 02:41:18;;;;;;;21.85;10.23;;;;;;;;;;10337250;23;20016;-92
2023/12/31 02:45:22;;;;;;;38.03;17.02;;;;;;;;;;10337959;23;20016;-91
2023/12/31 02:49:24;;;;;;;44.78;15.85;;;;;;;;;;10310251;23;20062;-92
2023/12/31 02:53:30;;;;;;;28.00;9.90;;;;;;;;;;10310625;23;20024;-92
2023/12/31 02:57:34;;;;;;;24.15;9.15;;;;;;;;;;10337261;23;20043;-90
2023/12/31 03:01:38;;;;;;;14.05;7.07;;;;;;;;;;10310276;23;20016;-92
2023/12/31 03:05:41;;;;;;;24.98;11.13;;;;;;;;;;10337456;23;20436;-91
2023/12/31 03:09:44;;;;;;;22.70;9.13;;;;;;;;;;10337575;23;20103;-92
2023/12/31 03:13:47;;;;;;;24.58;10.77;;;;;;;;;;10339680;23;20059;-91
2023/12/31 03:17:51;;;;;;;20.23;8.10;;;;;;;;;;10337176;23;20024;-91
2023/12/31 03:21:54;;;;;;;15.55;7.82;;;;;;;;;;10336962;23;20038;-91
2023/12/31 03:25:57;;;;;;;27.60;11.88;;;;;;;;;;10337669;23;20039;-91
2023/12/31 03:30:00;;;;;;;114.95;18.52;;;;;;;;;;10337163;23;20020;-92
2023/12/31 03:34:06;;;;;;;18.10;8.07;;;;;;;;;;10337054;23;20024;-92
2023/12/31 03:38:09;;;;;;;19.35;6.75;;;;;;;;;;10336983;23;20427;-91
2023/12/31 03:42:12;;;;;;;38.88;14.65;;;;;;;;;;10337315;23;20179;-91
2023/12/31 03:46:15;;;;;;;112.05;40.53;;;;;;;;;;10336758;23;20103;-92
2023/12/31 03:50:19;;;;;;;68.10;26.65;;;;;;;;;;10338834;23;20457;-91
2023/12/31 03:54:23;;;;;;;33.83;13.30;;;;;;;;;;10339852;23;20043;-92
2023/12/31 03:58:26;;;;;;;34.25;16.30;;;;;;;;;;10339579;23;20055;-92
2023/12/31 04:02:29;;;;;;;64.90;23.40;;;;;;;;;;10339703;23;20111;-92
2023/12/31 04:06:33;;;;;;;39.92;16.73;;;;;;;;;;10339463;23;20016;-92
2023/12/31 04:10:36;;;;;;;23.67;11.13;;;;;;;;;;10339315;23;20016;-93
2023/12/31 04:14:39;;;;;;;26.65;11.85;;;;;;;;;;10339759;23;20030;-92
2023/12/31 04:18:42;;;;;;;26.40;10.40;;;;;;;;;;10340710;23;20023;-93
2023/12/31 04:22:46;;;;;;;27.20;12.23;;;;;;;;;;10340467;23;20091;-92
2023/12/31 04:26:50;;;;;;;27.13;12.88;;;;;;;;;;10339449;23;20023;-92
2023/12/31 04:30:53;;;;;;;25.45;13.93;;;;;;;;;;10339301;23;20399;-92
2023/12/31 04:34:55;;;;;;;37.53;15.35;;;;;;;;;;10339461;23;20039;-91
2023/12/31 04:39:00;;;;;;;48.97;24.17;;;;;;;;;;10339574;23;20047;-91
2023/12/31 04:43:03;;;;;;;35.45;18.40;;;;;;;;;;10339364;23;20023;-92
2023/12/31 04:47:06;;;;;;;31.52;14.00;;;;;;;;;;10339501;23;20049;-92
2023/12/31 04:51:09;;;;;;;25.65;12.40;;;;;;;;;;10338888;23;20387;-92
2023/12/31 04:55:14;;;;;;;24.85;9.48;;;;;;;;;;10339254;23;20020;-91
2023/12/31 04:59:17;;;;;;;23.55;13.02;;;;;;;;;;10312088;23;20318;-91
2023/12/31 05:03:20;;;;;;;28.23;12.68;;;;;;;;;;10312182;23;20456;-92
2023/12/31 05:07:23;;;;;;;37.58;19.15;;;;;;;;;;10338977;23;20464;-91
2023/12/31 05:11:28;;;;;;;31.73;15.63;;;;;;;;;;10338670;23;20403;-91
2023/12/31 05:15:31;;;;;;;43.60;20.90;;;;;;;;;;10355468;23;20066;-92
2023/12/31 05:19:34;;;;;;;42.60;15.85;;;;;;;;;;10339072;23;20050;-92
2023/12/31 05:23:37;;;;;;;33.15;14.15;;;;;;;;;;10338613;23;20033;-92
2023/12/31 05:27:42;;;;;;;24.08;11.13;;;;;;;;;;10338329;23;20027;-92
2023/12/31 05:31:45;;;;;;;29.77;14.95;;;;;;;;;;10311261;23;20442;-92
2023/12/31 05:35:47;;;;;;;40.80;21.77;;;;;;;;;;10338649;23;20027;-92
2023/12/31 05:39:51;;;;;;;69.22;20.63;;;;;;;;;;10338529;23;20117;-92
2023/12/31 05:43:55;;;;;;;37.22;19.55;;;;;;;;;;10338031;23;20027;-92
2023/12/31 05:47:58;;;;;;;41.03;21.58;;;;;;;;;;10337787;23;20511;-92
2023/12/31 05:52:01;;;;;;;31.15;15.48;;;;;;;;;;10337388;23;20020;-92
2023/12/31 05:56:05;;;;;;;28.52;13.55;;;;;;;;;;10337751;23;20095;-92
2023/12/31 06:00:10;;;;;;;27.45;13.15;;;;;;;;;;10337459;23;20099;-91
2023/12/31 06:04:13;;;;;;;32.72;11.23;;;;;;;;;;10310559;23;20031;-91
2023/12/31 06:08:17;;;;;;;48.55;18.60;;;;;;;;;;10338508;23;20024;-91
2023/12/31 06:12:20;;;;;;;37.47;14.52;;;;;;;;;;10337906;23;20024;-94
2023/12/31 06:16:27;;;;;;;29.38;13.55;;;;;;;;;;10338043;23;20031;-91
2023/12/31 06:20:30;;;;;;;32.58;14.95;;;;;;;;;;10337491;23;20052;-91
2023/12/31 06:24:33;;;;;;;30.58;16.45;;;;;;;;;;10337721;23;20096;-90
2023/12/31 06:28:37;;;;;;;38.10;16.13;;;;;;;;;;10337564;23;20095;-92
2023/12/31 06:32:42;;;;;;;30.02;12.07;;;;;;;;;;10337495;23;20391;-92
2023/12/31 06:36:45;;;;;;;24.60;9.63;;;;;;;;;;10311091;23;20066;-92
2023/12/31 06:40:48;;;;;;;30.42;13.27;;;;;;;;;;10310744;23;20023;-91
2023/12/31 06:44:51;;;;;;;30.65;14.38;;;;;;;;;;10337949;23;20024;-92
2023/12/31 06:48:55;;;;;;;48.97;20.73;;;;;;;;;;10337152;23;20028;-91
2023/12/31 06:52:58;;;;;;;59.13;26.38;;;;;;;;;;10337452;23;20020;-91
2023/12/31 06:57:01;;;;;;;61.33;30.38;;;;;;;;;;10337063;23;20099;-91
2023/12/31 07:01:04;;;;;;;56.38;26.50;;;;;;;;;;10337462;23;20437;-91
2023/12/31 07:05:09;;;;;;;38.00;15.18;;;;;;;;;;10337386;23;20434;-91
2023/12/31 07:09:12;;;;;;;67.35;30.90;;;;;;;;;;10337572;23;20484;-91
2023/12/31 07:13:15;;;;;;;44.35;21.50;;;;;;;;;;10337093;23;20422;-91
2023/12/31 07:17:18;;;;;;;52.60;26.05;;;;;;;;;;10336493;23;20020;-91
2023/12/31 07:21:24;;;;;;;63.42;29.70;;;;;;;;;;10353799;23;20341;-91
2023/12/31 07:25:28;;;;;;;43.60;21.30;;;;;;;;;;10356512;23;20445;-91
2023/12/31 07:29:31;;;;;;;33.67;15.80;;;;;;;;;;10340222;23;20024;-91
2023/12/31 07:33:34;;;;;;;28.35;12.18;;;;;;;;;;10340258;23;20028;-91
2023/12/31 07:37:38;;;;;;;36.63;16.48;;;;;;;;;;10313677;23;20039;-91
2023/12/31 07:41:41;;;;;;;53.10;32.83;;;;;;;;;;10340554;23;20008;-92
2023/12/31 07:45:44;;;;;;;45.17;20.48;;;;;;;;;;10338922;23;20420;-91
2023/12/31 07:49:48;;;;;;;44.17;20.27;;;;;;;;;;10340183;23;20036;-91
2023/12/31 07:53:54;;;;;;;27.95;10.80;;;;;;;;;;10339956;23;20024;-92
2023/12/31 07:57:57;;;;;;;37.10;17.00;;;;;;;;;;10356504;23;20023;-91
2023/12/31 08:02:00;;;;;;;31.50;13.60;;;;;;;;;;10339696;23;20020;-91
2023/12/31 08:06:03;;;;;;;26.80;14.15;;;;;;;;;;10339384;23;20023;-91
2023/12/31 08:10:11;;;;;;;42.15;17.52;;;;;;;;;;10339984;23;20085;-90
2023/12/31 08:14:14;;;;;;;33.97;19.48;;;;;;;;;;10339045;23;20394;-90
2023/12/31 08:18:16;;;;;;;56.60;27.17;;;;;;;;;;10338839;23;20020;-91
2023/12/31 08:22:19;;;;;;;58.35;26.63;;;;;;;;;;10339160;23;20020;-91
2023/12/31 08:26:25;;;;;;;34.42;17.10;;;;;;;;;;10312456;23;20020;-93
2023/12/31 08:30:28;;;;;;;275.17;35.35;;;;;;;;;;10356294;23;20024;-91
2023/12/31 08:34:31;;;;;;;54.97;27.88;;;;;;;;;;10339063;23;20054;-92
2023/12/31 08:38:34;;;;;;;43.88;22.17;;;;;;;;;;10339314;23;20027;-91
2023/12/31 08:42:39;;;;;;;36.35;16.20;;;;;;;;;;10339231;23;20536;-91
2023/12/31 08:46:42;;;;;;;52.55;24.08;;;;;;;;;;10338832;23;20016;-92
2023/12/31 08:50:45;;;;;;;109.45;45.00;;;;;;;;;;10339049;23;20027;-92
2023/12/31 08:54:48;;;;;;;73.22;37.55;;;;;;;;;;10340206;23;20512;-92
2023/12/31 08:58:53;;;;;;;50.00;27.20;;;;;;;;;;10339064;23;20019;-92
2023/12/31 09:02:56;;;;;;;178.13;68.40;;;;;;;;;;10339121;23;20318;-91
2023/12/31 09:06:58;;;;;;;95.53;42.05;;;;;;;;;;10338979;23;20441;-92
2023/12/31 09:11:02;;;;;;;68.10;32.15;;;;;;;;;;10338429;23;20470;-92
2023/12/31 09:15:08;;;;;;;54.45;30.10;;;;;;;;;;10338537;23;20024;-92
2023/12/31 09:19:11;;;;;;;58.33;30.50;;;;;;;;;;10338540;23;20024;-92
2023/12/31 09:23:14;;;;;;;112.45;47.13;;;;;;;;;;10338453;23;20020;-91
2023/12/31 09:27:16;;;;;;;78.43;46.22;;;;;;;;;;10311593;23;20022;-92
2023/12/31 09:31:24;;;;;;;38.28;24.20;;;;;;;;;;10338483;23;20051;-92
2023/12/31 09:35:27;;;;;;;33.40;21.35;;;;;;;;;;10355414;23;20023;-92
2023/12/31 09:39:30;;;;;;;28.58;18.13;;;;;;;;;;10338324;23;20448;-92
2023/12/31 09:43:35;;;;;;;27.40;16.23;;;;;;;;;;10338817;23;20022;-92
2023/12/31 09:47:41;;;;;;;28.25;18.13;;;;;;;;;;10337648;23;20519;-93
2023/12/31 09:51:45;;;;;;;25.23;13.85;;;;;;;;;;10363386;23;20393;-93
2023/12/31 09:55:50;;;;;;;26.33;14.55;;;;;;;;;;10317859;23;20482;-93
2023/12/31 09:59:55;;;;;;;22.95;12.82;;;;;;;;;;10338081;23;20081;-93
2023/12/31 10:04:01;;;;;;;29.58;17.13;;;;;;;;;;10338601;23;20016;-92
2023/12/31 10:08:05;;;;;;;20.48;11.77;;;;;;;;;;10355030;23;20093;-94
2023/12/31 10:12:08;;;;;;;24.30;13.80;;;;;;;;;;10337675;23;20055;-92
2023/12/31 10:16:15;;;;;;;28.52;14.07;;;;;;;;;;10337993;23;20027;-94
2023/12/31 10:20:21;;;;;;;48.47;25.42;;;;;;;;;;10337809;23;20453;-92
2023/12/31 10:24:28;;;;;;;20.27;9.98;;;;;;;;;;10354622;23;20035;-92
2023/12/31 10:28:31;;;;;;;21.40;10.70;;;;;;;;;;10354704;23;20012;-92
2023/12/31 10:32:34;;;;;;;28.52;16.02;;;;;;;;;;10337555;23;20016;-91
2023/12/31 10:36:38;;;;;;;20.98;8.98;;;;;;;;;;10338041;23;20016;-90
2023/12/31 10:40:43;;;;;;;19.08;9.20;;;;;;;;;;10338803;23;20070;-93
2023/12/31 10:44:49;;;;;;;28.58;14.50;;;;;;;;;;10338577;23;20059;-92
2023/12/31 10:49:03;;;;;;;14.82;7.70;;;;;;;;;;10363500;23;20082;-93
2023/12/31 10:53:12;;;;;;;23.98;9.10;;;;;;;;;;10355371;23;20101;-91
2023/12/31 10:57:16;;;;;;;33.13;16.60;;;;;;;;;;10311528;23;20023;-92
2023/12/31 11:01:20;;;;;;;72.47;35.03;;;;;;;;;;10341377;23;20099;-92
2023/12/31 11:05:24;;;;;;;19.55;9.57;;;;;;;;;;10340907;23;20398;-93
2023/12/31 11:09:29;;;;;;;56.75;29.88;;;;;;;;;;10340710;23;20393;-94
2023/12/31 11:13:34;;;;;;;17.20;7.55;;;;;;;;;;10361970;23;20437;-93
2023/12/31 11:18:11;;;;;;;27.10;11.70;;;;;;;;;;10342414;23;20440;-93
2023/12/31 11:22:33;;;;;;;13.55;6.65;;;;;;;;;;10335396;23;20026;-93
2023/12/31 11:26:38;;;;;;;16.15;6.78;;;;;;;;;;10357352;23;20031;-93
2023/12/31 11:30:52;;;;;;;11.40;6.78;;;;;;;;;;10357153;23;20576;-93
2023/12/31 11:34:55;;;;;;;13.20;8.25;;;;;;;;;;10340270;23;20051;-93
2023/12/31 11:39:00;;;;;;;25.17;10.75;;;;;;;;;;10340475;23;20016;-93
2023/12/31 11:43:13;;;;;;;25.10;10.52;;;;;;;;;;10342613;23;20123;-91
2023/12/31 11:47:17;;;;;;;16.55;7.65;;;;;;;;;;10357373;23;20031;-92
2023/12/31 11:51:21;;;;;;;21.35;8.98;;;;;;;;;;10340002;23;20046;-91
2023/12/31 11:55:24;;;;;;;21.83;9.50;;;;;;;;;;10339852;23;20446;-92
2023/12/31 11:59:28;;;;;;;11.05;6.45;;;;;;;;;;10340017;23;20066;-91
2023/12/31 12:03:31;;;;;;;79.60;21.45;;;;;;;;;;10339751;23;20074;-92
2023/12/31 12:07:35;;;;;;;17.13;9.00;;;;;;;;;;10339819;23;20016;-93
2023/12/31 12:11:43;;;;;;;15.23;10.13;;;;;;;;;;10339319;23;20020;-93
2023/12/31 12:16:02;;;;;;;46.90;16.65;;;;;;;;;;10356020;23;20013;-92
2023/12/31 12:20:08;;;;;;;16.17;7.53;;;;;;;;;;10340945;23;20035;-94
2023/12/31 12:24:11;;;;;;;29.75;12.25;;;;;;;;;;10339593;23;20521;-92
2023/12/31 12:28:15;;;;;;;62.22;19.90;;;;;;;;;;10339229;23;20016;-92
2023/12/31 12:32:22;;;;;;;42.42;16.13;;;;;;;;;;10339695;23;20016;-93
2023/12/31 12:36:25;;;;;;;39.00;12.27;;;;;;;;;;10339173;23;20091;-91
2023/12/31 12:40:29;;;;;;;49.13;14.88;;;;;;;;;;10338875;23;20031;-91
2023/12/31 12:44:35;;;;;;;37.20;15.63;;;;;;;;;;10312604;23;20019;-92
2023/12/31 12:48:48;;;;;;;43.63;20.50;;;;;;;;;;10312890;23;20020;-92
2023/12/31 12:52:51;;;;;;;24.27;10.75;;;;;;;;;;10355647;23;20332;-92
2023/12/31 12:56:54;;;;;;;27.73;12.73;;;;;;;;;;10338918;23;20056;-92
2023/12/31 13:00:57;;;;;;;35.72;17.60;;;;;;;;;;10338815;23;20027;-93
2023/12/31 13:05:02;;;;;;;26.35;11.68;;;;;;;;;;10339489;23;20333;-90
2023/12/31 13:09:06;;;;;;;24.35;11.07;;;;;;;;;;10338626;23;20369;-92
2023/12/31 13:13:10;;;;;;;25.15;13.52;;;;;;;;;;10338838;23;20095;-91
2023/12/31 13:17:13;;;;;;;18.10;8.13;;;;;;;;;;10338415;23;20016;-92
2023/12/31 13:21:17;;;;;;;16.25;7.85;;;;;;;;;;10239355;23;20023;-90
2023/12/31 13:25:20;;;;;;;16.95;7.60;;;;;;;;;;10238378;23;20021;-92
2023/12/31 13:29:41;;;;;;;16.65;8.90;;;;;;;;;;10239012;23;20021;-93
2023/12/31 13:33:47;;;;;;;19.33;9.97;;;;;;;;;;10236955;23;20021;-92
2023/12/31 13:37:52;;;;;;;30.52;17.10;;;;;;;;;;10255366;23;20276;-91
2023/12/31 13:41:55;;;;;;;22.13;10.90;;;;;;;;;;10238216;23;20513;-92
2023/12/31 13:45:59;;;;;;;22.42;9.27;;;;;;;;;;10238374;23;20084;-92
2023/12/31 13:50:02;;;;;;;19.02;9.07;;;;;;;;;;10238297;23;20051;-91
2023/12/31 13:54:08;;;;;;;23.48;9.98;;;;;;;;;;10238702;23;20017;-93
2023/12/31 13:58:11;;;;;;;30.27;15.82;;;;;;;;;;10237782;23;20493;-92
2023/12/31 14:02:14;;;;;;;27.10;12.38;;;;;;;;;;10237924;23;20433;-92
2023/12/31 14:06:17;;;;;;;28.05;12.93;;;;;;;;;;10236423;23;20021;-93
2023/12/31 14:10:22;;;;;;;25.20;11.30;;;;;;;;;;10238010;23;20016;-92
2023/12/31 14:14:25;;;;;;;24.80;11.25;;;;;;;;;;10237846;23;20112;-91
2023/12/31 14:18:28;;;;;;;67.50;30.40;;;;;;;;;;10268625;23;20020;-93
2023/12/31 14:22:32;;;;;;;45.30;22.23;;;;;;;;;;10337711;23;20031;-93
2023/12/31 14:26:37;;;;;;;33.83;16.83;;;;;;;;;;10337744;23;20087;-93
2023/12/31 14:30:42;;;;;;;49.70;22.52;;;;;;;;;;10311313;23;20448;-93
2023/12/31 14:34:53;;;;;;;21.92;11.68;;;;;;;;;;10337307;23;20072;-92
2023/12/31 14:38:58;;;;;;;270.52;92.65;;;;;;;;;;10337518;23;20016;-92
2023/12/31 14:43:07;;;;;;;170.85;62.85;;;;;;;;;;10337700;23;20019;-93
2023/12/31 14:47:12;;;;;;;65.32;26.40;;;;;;;;;;10337932;23;20044;-93
2023/12/31 14:51:16;;;;;;;31.33;13.55;;;;;;;;;;10338042;23;20016;-92
2023/12/31 14:55:20;;;;;;;25.83;10.88;;;;;;;;;;10310466;23;20035;-93
2023/12/31 14:59:30;;;;;;;34.83;15.90;;;;;;;;;;10343102;23;20095;-94
2023/12/31 15:03:33;;;;;;;22.05;10.48;;;;;;;;;;10361292;23;20087;-92
2023/12/31 15:07:37;;;;;;;20.13;8.10;;;;;;;;;;10311974;23;20322;-90
2023/12/31 15:11:40;;;;;;;16.42;7.38;;;;;;;;;;10337349;23;20028;-89
2023/12/31 15:15:45;;;;;;;17.13;8.15;;;;;;;;;;10337157;23;20043;-91
2023/12/31 15:19:48;;;;;;;14.00;7.03;;;;;;;;;;10337331;23;20020;-90
2023/12/31 15:23:51;;;;;;;21.73;9.63;;;;;;;;;;10338084;23;20019;-91
2023/12/31 15:27:56;;;;;;;12.73;7.82;;;;;;;;;;10337772;23;20020;-91
2023/12/31 15:32:00;;;;;;;16.40;9.30;;;;;;;;;;10337519;23;20050;-91
2023/12/31 15:36:03;;;;;;;17.95;10.55;;;;;;;;;;10338692;23;20458;-92
2023/12/31 15:40:08;;;;;;;31.27;16.02;;;;;;;;;;10337432;23;20090;-92
2023/12/31 15:44:11;;;;;;;17.95;9.43;;;;;;;;;;10338060;23;20020;-93
2023/12/31 15:48:15;;;;;;;22.70;10.57;;;;;;;;;;10340679;23;20016;-91
2023/12/31 15:52:18;;;;;;;22.83;10.50;;;;;;;;;;10339931;23;20146;-94
2023/12/31 15:56:21;;;;;;;22.00;9.85;;;;;;;;;;10339741;23;20024;-91
2023/12/31 16:00:24;;;;;;;23.08;11.00;;;;;;;;;;10339857;23;20020;-91
2023/12/31 16:04:30;;;;;;;21.88;11.57;;;;;;;;;;10339778;23;20016;-92
2023/12/31 16:08:33;;;;;;;41.30;17.77;;;;;;;;;;10356504;23;20467;-91
2023/12/31 16:12:36;;;;;;;44.35;20.35;;;;;;;;;;10339919;23;20016;-91
2023/12/31 16:16:39;;;;;;;23.33;10.52;;;;;;;;;;10312671;23;20404;-92
2023/12/31 16:20:44;;;;;;;24.25;11.13;;;;;;;;;;10339262;23;20023;-92
2023/12/31 16:24:47;;;;;;;21.75;11.57;;;;;;;;;;10339378;23;20464;-94
2023/12/31 16:28:50;;;;;;;27.42;12.63;;;;;;;;;;10339774;23;20344;-91
2023/12/31 16:32:53;;;;;;;23.10;11.40;;;;;;;;;;10339416;23;20158;-91
2023/12/31 16:36:58;;;;;;;26.83;13.65;;;;;;;;;;10339101;23;20051;-92
2023/12/31 16:41:01;;;;;;;26.58;11.77;;;;;;;;;;10339257;23;20095;-93
2023/12/31 16:45:05;;;;;;;34.58;17.05;;;;;;;;;;10339193;23;20027;-93
2023/12/31 16:49:08;;;;;;;27.60;13.63;;;;;;;;;;10339004;23;20086;-92
2023/12/31 16:53:14;;;;;;;29.23;13.45;;;;;;;;;;10338923;23;20091;-93
2023/12/31 16:57:17;;;;;;;25.70;13.40;;;;;;;;;;10356279;23;20622;-93
2023/12/31 17:01:20;;;;;;;26.70;13.25;;;;;;;;;;10339356;23;20020;-91
2023/12/31 17:05:23;;;;;;;59.40;22.65;;;;;;;;;;10311410;23;20016;-93
2023/12/31 17:09:27;;;;;;;53.10;23.55;;;;;;;;;;10339075;23;20405;-93
2023/12/31 17:13:30;;;;;;;31.02;15.35;;;;;;;;;;10338619;23;20019;-93
2023/12/31 17:17:33;;;;;;;39.55;19.42;;;;;;;;;;10338623;23;20020;-93
2023/12/31 17:21:36;;;;;;;44.40;21.55;;;;;;;;;;10355570;23;20647;-92
2023/12/31 17:25:41;;;;;;;27.73;15.00;;;;;;;;;;10338788;23;20440;-95
2023/12/31 17:29:43;;;;;;;23.27;12.93;;;;;;;;;;10338433;23;20092;-92
2023/12/31 17:33:46;;;;;;;30.05;13.63;;;;;;;;;;10338538;23;20023;-93
2023/12/31 17:37:50;;;;;;;29.85;14.57;;;;;;;;;;10338345;23;20449;-94
2023/12/31 17:41:54;;;;;;;31.42;15.63;;;;;;;;;;10338206;23;20023;-94
2023/12/31 17:45:57;;;;;;;21.83;10.63;;;;;;;;;;10338097;23;20016;-93
2023/12/31 17:50:01;;;;;;;32.05;15.30;;;;;;;;;;10338079;23;20099;-93
2023/12/31 17:54:04;;;;;;;36.28;18.02;;;;;;;;;;10337807;23;20091;-94
2023/12/31 17:58:09;;;;;;;27.98;14.77;;;;;;;;;;10337769;23;20091;-92
2023/12/31 18:02:11;;;;;;;28.00;14.55;;;;;;;;;;10311197;23;20514;-92
2023/12/31 18:06:14;;;;;;;30.10;15.00;;;;;;;;;;10337347;23;20040;-92
2023/12/31 18:10:18;;;;;;;31.73;14.45;;;;;;;;;;10337575;23;20122;-93
2023/12/31 18:14:23;;;;;;;28.92;15.05;;;;;;;;;;10337466;23;20028;-91
2023/12/31 18:18:26;;;;;;;29.63;14.60;;;;;;;;;;10349323;23;20016;-92
2023/12/31 18:22:30;;;;;;;25.40;11.95;;;;;;;;;;10337961;23;20016;-92
2023/12/31 18:26:33;;;;;;;25.65;12.15;;;;;;;;;;10338059;23;20020;-91
2023/12/31 18:30:37;;;;;;;26.45;14.50;;;;;;;;;;10337958;23;20020;-91
2023/12/31 18:34:40;;;;;;;30.52;15.18;;;;;;;;;;10337843;23;20099;-92
2023/12/31 18:38:43;;;;;;;29.65;14.68;;;;;;;;;;10337804;23;20105;-93
2023/12/31 18:42:48;;;;;;;31.13;13.90;;;;;;;;;;10338150;23;20055;-94
2023/12/31 18:46:52;;;;;;;36.72;18.00;;;;;;;;;;10338409;23;20051;-91
2023/12/31 18:50:55;;;;;;;32.97;16.02;;;;;;;;;;10337498;23;20483;-92
2023/12/31 18:54:58;;;;;;;28.10;14.57;;;;;;;;;;10337859;23;20087;-91
2023/12/31 18:59:01;;;;;;;41.33;19.63;;;;;;;;;;10338686;23;20514;-91
2023/12/31 19:03:06;;;;;;;35.17;18.27;;;;;;;;;;10337920;23;20039;-92
2023/12/31 19:07:09;;;;;;;26.92;16.02;;;;;;;;;;10338035;23;20088;-91
2023/12/31 19:11:12;;;;;;;29.92;14.70;;;;;;;;;;10337595;23;20095;-91
2023/12/31 19:15:24;;;;;;;34.28;17.70;;;;;;;;;;10337436;23;20052;-92
2023/12/31 19:19:28;;;;;;;80.85;29.77;;;;;;;;;;10339094;23;20051;-93
2023/12/31 19:23:31;;;;;;;49.97;29.08;;;;;;;;;;10340453;23;20020;-92
2023/12/31 19:27:34;;;;;;;108.30;35.72;;;;;;;;;;10340427;23;20012;-92
2023/12/31 19:31:37;;;;;;;42.53;21.27;;;;;;;;;;10340795;23;20020;-91
2023/12/31 19:35:42;;;;;;;52.15;26.13;;;;;;;;;;10340659;23;20056;-92
2023/12/31 19:39:44;;;;;;;140.95;50.83;;;;;;;;;;10340370;23;20074;-92
2023/12/31 19:43:47;;;;;;;135.90;47.90;;;;;;;;;;10313404;23;20024;-94
2023/12/31 19:47:50;;;;;;;41.00;19.50;;;;;;;;;;10340288;23;20030;-93
2023/12/31 19:51:56;;;;;;;52.85;22.42;;;;;;;;;;10340307;23;20020;-94
2023/12/31 19:56:08;;;;;;;120.57;43.75;;;;;;;;;;10356838;23;20016;-92
2023/12/31 20:00:12;;;;;;;;;;;;;;;;;;10357160;23;20107;-92
2023/12/31 20:04:15;;;;;;;94.53;38.63;;;;;;;;;;10336684;23;19915;-93
2023/12/31 20:08:24;;;;;;;87.18;35.53;;;;;;;;;;10366925;23;20370;-93
2023/12/31 20:12:27;;;;;;;67.57;31.23;;;;;;;;;;10359583;23;20030;-93
2023/12/31 20:16:33;;;;;;;104.38;38.22;;;;;;;;;;10339822;23;20016;-92
2023/12/31 20:20:36;;;;;;;287.52;85.53;;;;;;;;;;10339951;23;20091;-92
2023/12/31 20:24:41;;;;;;;57.83;24.27;;;;;;;;;;10339779;23;20012;-91
2023/12/31 20:28:43;;;;;;;62.22;28.35;;;;;;;;;;10339836;23;20099;-93
2023/12/31 20:32:47;;;;;;;38.80;19.00;;;;;;;;;;10339863;23;20016;-92
2023/12/31 20:36:50;;;;;;;77.47;31.48;;;;;;;;;;10312461;23;20028;-93
2023/12/31 20:40:54;;;;;;;47.78;24.23;;;;;;;;;;10312756;23;20023;-92
2023/12/31 20:44:57;;;;;;;54.67;25.60;;;;;;;;;;10339497;23;20455;-92
2023/12/31 20:49:00;;;;;;;63.83;24.65;;;;;;;;;;10340082;23;20020;-93
2023/12/31 20:53:03;;;;;;;39.53;20.08;;;;;;;;;;10339418;23;20012;-94
2023/12/31 20:57:08;;;;;;;56.20;25.17;;;;;;;;;;10339457;23;20024;-94
2023/12/31 21:01:11;;;;;;;70.25;28.90;;;;;;;;;;10339176;23;20099;-94
2023/12/31 21:05:13;;;;;;;117.78;43.10;;;;;;;;;;10338923;23;20020;-93
2023/12/31 21:09:25;;;;;;;63.00;27.00;;;;;;;;;;10312395;23;20016;-94
2023/12/31 21:13:29;;;;;;;59.37;27.00;;;;;;;;;;10356264;23;20095;-92
2023/12/31 21:17:33;;;;;;;51.97;24.05;;;;;;;;;;10338929;23;20059;-93
2023/12/31 21:21:39;;;;;;;36.47;18.95;;;;;;;;;;10338528;23;20020;-94
2023/12/31 21:25:44;;;;;;;57.65;26.52;;;;;;;;;;10355587;23;20026;-91
2023/12/31 21:29:48;;;;;;;45.13;22.30;;;;;;;;;;10338396;23;20039;-92
2023/12/31 21:33:51;;;;;;;34.83;17.77;;;;;;;;;;10338309;23;20016;-93
2023/12/31 21:37:56;;;;;;;37.50;16.83;;;;;;;;;;10338291;23;20439;-91
2023/12/31 21:42:00;;;;;;;69.47;32.33;;;;;;;;;;10337685;23;20158;-92
2023/12/31 21:46:21;;;;;;;81.78;35.42;;;;;;;;;;10355164;23;20016;-93
2023/12/31 21:50:36;;;;;;;35.75;17.83;;;;;;;;;;10354891;23;20020;-92
2023/12/31 21:54:41;;;;;;;32.00;17.00;;;;;;;;;;10338140;23;20047;-92
2023/12/31 21:58:44;;;;;;;26.52;14.23;;;;;;;;;;10338010;23;20016;-92
2023/12/31 22:02:51;;;;;;;69.47;30.20;;;;;;;;;;10337950;23;20080;-93
2023/12/31 22:06:54;;;;;;;71.57;30.88;;;;;;;;;;10341925;23;20353;-93
2023/12/31 22:10:57;;;;;;;38.35;20.40;;;;;;;;;;10337891;23;20023;-92
2023/12/31 22:15:00;;;;;;;49.38;24.25;;;;;;;;;;10337690;23;20499;-92
2023/12/31 22:19:05;;;;;;;59.78;27.92;;;;;;;;;;10311495;23;20760;-93
2023/12/31 22:23:08;;;;;;;34.03;17.75;;;;;;;;;;10311420;23;20055;-92
2023/12/31 22:27:11;;;;;;;29.17;15.38;;;;;;;;;;10337986;23;20020;-94
2023/12/31 22:31:14;;;;;;;38.53;18.25;;;;;;;;;;10337899;23;20024;-91
2023/12/31 22:35:19;;;;;;;77.30;28.00;;;;;;;;;;10337808;23;20016;-93
2023/12/31 22:39:22;;;;;;;93.93;39.03;;;;;;;;;;10337799;23;20499;-92
2023/12/31 22:43:25;;;;;;;73.32;33.80;;;;;;;;;;10337675;23;20463;-91
2023/12/31 22:47:28;;;;;;;199.10;76.00;;;;;;;;;;10337785;23;20463;-93
2023/12/31 22:51:33;;;;;;;286.08;93.90;;;;;;;;;;10337720;23;20027;-92
2023/12/31 22:55:36;;;;;;;56.47;29.08;;;;;;;;;;10340290;23;20036;-92
2023/12/31 22:59:41;;;;;;;79.13;33.38;;;;;;;;;;10341061;23;20047;-92
2023/12/31 23:03:44;;;;;;;158.73;62.92;;;;;;;;;;10357733;23;20028;-93
2023/12/31 23:07:49;;;;;;;149.85;60.63;;;;;;;;;;10340789;23;20016;-92
2023/12/31 23:11:52;;;;;;;319.50;139.60;;;;;;;;;;10341209;23;20095;-93
2023/12/31 23:15:54;;;;;;;120.45;48.05;;;;;;;;;;10340973;23;20393;-91
2023/12/31 23:19:57;;;;;;;124.50;44.67;;;;;;;;;;10340809;23;20433;-93
2023/12/31 23:24:02;;;;;;;95.30;38.88;;;;;;;;;;10340589;23;20083;-93